Sedgwick Reserve, California Weather observations

Data are for 10 minute period ending at time listed.
 Day   Time   Solar   Ave.   Ave.  Ave.  Vector  Max.   Baro.   Total    
  of    of     Rad.   Air    Rel.  Wind   Wind   Wind  Press.  Precip.   
Year   Day            Temp.  Hum.  Speed  Dir.   Gust                    
2015   (PST)  Kw/m2    F      %     mph   deg.    mph    mb.     in.     
-------------------------------------------------------------------------
 183   22:50   0.00   63.0    74    0.1    29     1.1   972.3    0.00 
 183   23:00   0.00   62.5    74    0.1   240     1.1   972.3    0.00 
 183   23:10   0.00   62.2    76    1.4   332     3.2   972.1    0.00 
 183   23:20   0.00   61.6    75    3.1   358     5.0   972.0    0.00 
 183   23:30   0.00   61.6    74    1.4   344     3.1   971.9    0.00 
 183   23:40   0.00   61.7    75    1.4   262     2.3   971.9    0.00 
 183   23:50   0.00   61.5    74    1.0   258     2.5   971.9    0.00 
 184    0:00   0.00   61.4    75    1.6   299     3.2   971.9    0.00 
 184    0:10   0.00   61.2    75    1.0    19     2.0   971.9    0.00 
 184    0:20   0.00   61.1    75    0.4   347     1.8   972.0    0.00 
 184    0:30   0.00   60.7    76    2.0     1     3.1   971.8    0.00 
 184    0:40   0.00   60.2    76    0.8   188     1.8   971.6    0.00 
 184    0:50   0.00   60.1    76    0.7   182     1.6   971.5    0.00 
 184    1:00   0.00   59.6    77    0.6    72     1.8   971.4    0.00 
 184    1:10   0.00   59.3    77    1.1   192     2.2   971.3    0.00 
 184    1:20   0.00   59.7    78    1.1   237     2.8   971.4    0.00 
 184    1:30   0.00   59.0    78    1.2    64     2.5   971.5    0.00 
 184    1:40   0.00   59.0    78    1.1    23     2.9   971.5    0.00 
 184    1:50   0.00   59.1    78    0.8   253     2.0   971.4    0.00 
 184    2:00   0.00   58.4    79    2.1     0     3.4   971.4    0.00 
 184    2:10   0.00   58.1    80    1.4   343     2.3   971.4    0.00 
 184    2:20   0.00   58.1    80    0.4   345     2.7   971.4    0.00 
 184    2:30   0.00   57.8    80    2.1   320     3.7   971.4    0.00 
 184    2:40   0.00   57.8    81    0.2   252     1.4   971.4    0.00 
 184    2:50   0.00   57.7    81    0.0     0     0.0   971.4    0.00 
 184    3:00   0.00   57.5    81    0.6   252     1.6   971.5    0.00 
 184    3:10   0.00   56.9    82    2.1   352     4.2   971.5    0.00 
 184    3:20   0.00   57.0    83    3.4   354     5.3   971.5    0.00 
 184    3:30   0.00   57.1    83    0.6   231     1.9   971.6    0.00 
 184    3:40   0.00   57.3    83    0.1   219     0.7   971.6    0.00 
 184    3:50   0.00   56.9    84    0.6   257     1.9   971.7    0.00 
 184    4:00   0.00   57.0    84    0.5     3     1.8   971.7    0.00 
 184    4:10   0.00   56.7    83    0.1    22     1.3   971.6    0.00 
 184    4:20   0.00   56.6    84    0.0   300     0.5   971.7    0.00 
 184    4:30   0.00   56.6    85    0.0     0     0.0   971.7    0.00 
 184    4:40   0.00   56.2    85    1.0     4     2.5   971.7    0.00 
 184    4:50   0.00   56.3    86    1.1   344     2.9   971.8    0.00 
 184    5:00   0.00   56.5    85    0.0    14     1.0   972.0    0.00 
 184    5:10   0.01   56.6    85    0.7   360     2.5   972.0    0.00 
 184    5:20   0.01   56.8    85    0.6   282     2.2   971.9    0.00 
 184    5:30   0.01   57.3    85    0.6   294     2.5   972.0    0.00 
 184    5:40   0.04   57.3    83    0.0     0     0.0   972.1    0.00 
 184    5:50   0.06   58.5    81    0.8   348     2.6   972.1    0.00 
 184    6:00   0.09   60.0    79    0.2   136     1.1   972.2    0.00 
 184    6:10   0.15   61.4    74    0.2   107     1.3   972.0    0.00 
 184    6:20   0.18   63.1    73    0.8   156     1.5   972.0    0.00 
 184    6:30   0.21   65.0    68    2.8   132     4.5   972.1    0.00 
 184    6:40   0.24   65.2    68    3.4   124     5.3   972.2    0.00 
 184    6:50   0.28   66.8    65    2.9   113     4.5   972.3    0.00 
 184    7:00   0.31   67.1    66    3.0   124     4.9   972.4    0.00 
 184    7:10   0.34   68.4    64    2.8   123     4.5   972.5    0.00 
 184    7:20   0.38   70.0    61    3.7   116     6.0   972.5    0.00 
 184    7:30   0.41   70.5    61    4.2   120     6.4   972.7    0.00 
 184    7:40   0.44   70.5    62    4.8   129     7.2   972.8    0.00 
 184    7:50   0.47   71.3    60    3.9   126     6.4   972.9    0.00 
 184    8:00   0.50   72.7    58    3.5   119     6.4   973.0    0.00 
 184    8:10   0.53   73.0    57    3.3   131     6.1   973.1    0.00 
 184    8:20   0.56   75.2    53    2.4    76     5.0   973.2    0.00 
 184    8:30   0.59   75.7    51    2.3   104     5.8   973.1    0.00 
 184    8:40   0.62   78.5    47    1.1    70     3.4   973.0    0.00 
 184    8:50   0.65   78.6    46    2.2   142     5.3   973.0    0.00 
 184    9:00   0.67   79.1    46    1.8    89     3.4   972.9    0.00 
 184    9:10   0.70   80.0    43    2.9   144     6.6   972.7    0.00 
 184    9:20   0.72   80.1    43    3.3   126     8.0   972.6    0.00 
 184    9:30   0.74   81.2    42    4.4   175    11.5   972.5    0.00 
 184    9:40   0.77   80.1    44    4.8   211    10.6   972.4    0.00 
 184    9:50   0.79   81.1    42    4.3   217     9.1   972.4    0.00 
 184   10:00   0.81   81.8    41    3.5   231     8.0   972.3    0.00 
 184   10:10   0.83   82.3    40    5.6   237    11.1   972.2    0.00 
 184   10:20   0.84   83.5    38    5.6   215     9.7   972.1    0.00 
 184   10:30   0.86   84.6    35    4.5   247    11.1   971.9    0.00 
 184   10:40   0.87   84.5    33    6.9   249    11.7   971.9    0.00 
 184   10:50   0.89   85.1    31    6.7   228    11.0   971.7    0.00 
 184   11:00   0.90   85.3    30    7.5   242    13.2   971.7    0.00 
 184   11:10   0.91   86.5    28    6.2   224    13.6   971.6    0.00 
 184   11:20   0.92   87.0    25    7.7   233    13.4   971.5    0.00 
 184   11:30   0.89   87.7    25    6.5   280    13.0   971.5    0.00 
 184   11:40   0.93   87.2    23    8.5   266    14.8   971.4    0.00 
 184   11:50   0.94   87.9    24    6.5   285    12.6   971.3    0.00 
 184   12:00   0.94   88.0    25    7.3   267    13.7   971.2    0.00 
 184   12:10   0.93   88.4    24    7.2   272    13.5   971.2    0.00 
 184   12:20   0.93   88.1    25    7.6   254    14.0   971.1    0.00 
 184   12:30   0.92   88.9    25    8.5   256    14.4   971.1    0.00 
 184   12:40   0.92   88.6    26    7.6   252    15.0   971.1    0.00 
 184   12:50   0.91   88.9    26    8.2   258    15.1   971.0    0.00 
 184   13:00   0.91   89.1    27    9.5   255    14.6   970.8    0.00 
 184   13:10   0.90   88.5    29    9.2   256    16.0   970.7    0.00 
 184   13:20   0.89   87.7    31   11.8   248    18.3   970.7    0.00 
 184   13:30   0.87   87.8    31    9.6   274    15.8   970.7    0.00 
 184   13:40   0.86   88.0    31   10.6   266    18.3   970.6    0.00 
 184   13:50   0.85   87.8    32    8.6   263    15.1   970.6    0.00 
 184   14:00   0.84   87.9    32   10.2   268    17.0   970.6    0.00 
 184   14:10   0.82   86.5    34   10.8   272    20.2   970.6    0.00 
 184   14:20   0.80   86.2    34   10.4   275    20.2   970.6    0.00 
 184   14:30   0.78   86.7    34   10.1   276    15.2   970.6    0.00 
 184   14:40   0.76   86.2    34    8.9   278    16.0   970.6    0.00 
 184   14:50   0.74   87.3    33    9.5   288    17.0   970.5    0.00 
 184   15:00   0.72   86.8    33    7.5   273    14.9   970.4    0.00 
 184   15:10   0.69   85.6    34   11.0   279    19.0   970.3    0.00 
 184   15:20   0.67   85.2    34   10.5   272    16.7   970.3    0.00 
 184   15:30   0.64   86.1    32    8.9   277    16.1   970.2    0.00 
 184   15:40   0.61   84.8    34   10.6   274    16.5   970.2    0.00 
 184   15:50   0.58   84.7    31   10.4   273    17.6   970.2    0.00 
 184   16:00   0.56   84.5    31   11.6   273    16.9   970.1    0.00 
 184   16:10   0.53   83.9    29   11.4   277    16.6   970.1    0.00 
 184   16:20   0.50   84.3    28    8.6   286    13.8   970.1    0.00 
 184   16:30   0.47   84.5    29    8.6   282    14.6   970.0    0.00 
 184   16:40   0.44   82.8    30   10.8   279    18.2   969.9    0.00 
 184   16:50   0.41   83.8    28    8.6   294    14.8   969.9    0.00 
 184   17:00   0.37   82.9    27    8.4   272    15.8   969.9    0.00 
 184   17:10   0.34   82.2    30    7.4   263    13.8   969.9    0.00 
 184   17:20   0.31   81.3    32    8.8   257    14.6   969.9    0.00 
 184   17:30   0.27   80.4    31    8.4   266    15.9   969.9    0.00 
 184   17:40   0.24   80.2    34    6.5   278    11.8   970.0    0.00 
 184   17:50   0.21   79.5    35    8.2   266    14.0   969.9    0.00 
 184   18:00   0.17   78.6    36    7.0   262    12.4   969.9    0.00 
 184   18:10   0.15   77.9    38    7.3   259    13.4   969.9    0.00 
 184   18:20   0.12   77.3    40    7.4   260    10.8   969.8    0.00 
 184   18:30   0.09   76.6    41    6.6   269    12.9   969.9    0.00 
 184   18:40   0.07   75.5    43    6.9   283    11.4   969.9    0.00 
 184   18:50   0.05   74.3    45    6.8   259     8.8   970.0    0.00 
 184   19:00   0.02   73.3    45    5.9   259    11.0   969.9    0.00 
 184   19:10   0.01   72.6    47    4.7   272     7.2   969.8    0.00 
 184   19:20   0.00   72.1    49    3.3   246     5.0   969.9    0.00 
 184   19:30   0.00   71.5    50    5.0   243     6.5   969.9    0.00 
 184   19:40   0.00   70.7    53    4.6   251     7.3   969.9    0.00 
 184   19:50   0.00   69.7    56    4.0   264     5.8   969.9    0.00 
 184   20:00   0.00   69.1    57    3.2   251     4.7   969.9    0.00 
 184   20:10   0.00   68.6    58    2.6   244     3.9   969.9    0.00 
 184   20:20   0.00   67.9    60    3.4   208     4.2   969.9    0.00 
 184   20:30   0.00   67.1    64    2.1   174     4.9   970.0    0.00 
 184   20:40   0.00   66.3    66    3.8   146     5.8   970.1    0.00 
 184   20:50   0.00   65.3    68    3.7   128     5.8   970.1    0.00 
 184   21:00   0.00   64.5    71    3.8   118     6.4   970.2    0.00 
 184   21:10   0.00   63.9    74    3.7   122     5.7   970.2    0.00 
 184   21:20   0.00   63.5    75    2.6   126     3.9   970.2    0.00 
 184   21:30   0.00   63.1    76    2.5   126     4.1   970.2    0.00 
 184   21:40   0.00   62.8    77    2.1   140     3.4   970.3    0.00 
 184   21:50   0.00   62.4    79    2.0   124     3.6   970.3    0.00 
 184   22:00   0.00   61.9    80    2.4   117     4.4   970.3    0.00 
 184   22:10   0.00   61.5    81    3.4   111     5.3   970.3    0.00 
 184   22:20   0.00   60.9    83    3.6   119     5.2   970.3    0.00 
 184   22:30   0.00   60.6    84    2.5   122     4.0   970.3    0.00 
 184   22:40   0.00   60.2    85    1.8   125     3.1   970.1    0.00 

Return to Sedgwick Reserve graphs page.


Western Regional Climate Center,wrcc@dri.edu